createdAt,value
2019-02-14T00:00:05.890Z,4.00
2019-02-14T00:01:05.901Z,4.00
2019-02-14T00:02:05.912Z,4.00
2019-02-14T00:03:05.923Z,4.00
2019-02-14T00:04:05.931Z,4.00
2019-02-14T00:05:05.940Z,4.00
2019-02-14T00:06:05.964Z,4.00
2019-02-14T00:07:05.967Z,4.00
2019-02-14T00:08:05.977Z,4.00
2019-02-14T00:09:05.983Z,4.00
2019-02-14T00:10:05.993Z,4.00
2019-02-14T00:11:06.007Z,4.00
2019-02-14T00:12:06.021Z,4.00
2019-02-14T00:13:06.033Z,4.00
2019-02-14T00:14:06.038Z,4.00
2019-02-14T00:15:06.047Z,4.00
2019-02-14T00:16:06.062Z,4.00
2019-02-14T00:17:06.078Z,4.00
2019-02-14T00:18:06.081Z,4.00
2019-02-14T00:19:06.101Z,4.00
2019-02-14T00:20:06.105Z,4.00
2019-02-14T00:21:06.122Z,4.00
2019-02-14T00:22:06.124Z,4.00
2019-02-14T00:23:06.135Z,4.00
2019-02-14T00:24:06.144Z,4.00
2019-02-14T00:25:06.158Z,4.00
2019-02-14T00:26:06.164Z,4.00
2019-02-14T00:27:06.183Z,4.00
2019-02-14T00:28:06.185Z,4.00
2019-02-14T00:29:06.204Z,4.00
2019-02-14T00:30:06.235Z,4.00
2019-02-14T00:31:06.221Z,4.00
2019-02-14T00:32:06.259Z,4.00
2019-02-14T00:33:06.246Z,4.00
2019-02-14T00:34:06.254Z,4.00
2019-02-14T00:35:06.268Z,4.00
2019-02-14T00:36:06.276Z,4.00
2019-02-14T00:37:06.596Z,4.00
2019-02-14T00:38:06.300Z,4.00
2019-02-14T00:39:06.316Z,4.00
2019-02-14T00:40:06.319Z,4.00
2019-02-14T00:41:06.332Z,4.00
2019-02-14T00:42:06.341Z,4.00
2019-02-14T00:43:06.348Z,4.00
2019-02-14T00:44:06.362Z,4.00
2019-02-14T00:45:06.372Z,4.00
2019-02-14T00:46:06.386Z,4.00
2019-02-14T00:47:06.391Z,4.00
2019-02-14T00:48:06.404Z,4.00
2019-02-14T00:49:06.411Z,4.00
2019-02-14T00:50:06.422Z,4.00
2019-02-14T00:51:06.429Z,4.00
2019-02-14T00:52:06.440Z,4.00
2019-02-14T00:53:06.455Z,4.00
2019-02-14T00:54:06.475Z,4.00
2019-02-14T00:55:06.474Z,4.00
2019-02-14T00:56:06.484Z,4.00
2019-02-14T00:57:06.493Z,4.00
2019-02-14T00:58:06.515Z,4.00
2019-02-14T00:59:06.517Z,4.00
2019-02-14T01:00:06.540Z,4.00
2019-02-14T01:01:06.538Z,4.00
2019-02-14T01:02:06.551Z,4.00
2019-02-14T01:03:06.563Z,4.00
2019-02-14T01:04:06.575Z,4.00
2019-02-14T01:05:06.589Z,4.00
2019-02-14T01:06:06.598Z,4.00
2019-02-14T01:07:06.625Z,4.00
2019-02-14T01:08:06.634Z,4.00
2019-02-14T01:09:06.635Z,4.00
2019-02-14T01:10:06.634Z,4.00
2019-02-14T01:11:06.647Z,4.00
2019-02-14T01:12:06.666Z,4.00
2019-02-14T01:13:06.668Z,4.00
2019-02-14T01:14:06.676Z,4.00
2019-02-14T01:15:06.687Z,4.00
2019-02-14T01:16:06.697Z,4.00
2019-02-14T01:17:06.715Z,4.00
2019-02-14T01:18:06.727Z,4.00
2019-02-14T01:19:06.845Z,4.00
2019-02-14T01:20:06.753Z,4.00
2019-02-14T01:21:06.748Z,4.00
2019-02-14T01:22:06.762Z,4.00
2019-02-14T01:23:06.769Z,4.00
2019-02-14T01:24:06.797Z,4.00
2019-02-14T01:25:06.793Z,4.00
2019-02-14T01:26:06.812Z,4.00
2019-02-14T01:27:06.811Z,4.00
2019-02-14T01:28:06.823Z,4.00
2019-02-14T01:29:06.830Z,4.00
2019-02-14T01:30:06.850Z,4.00
2019-02-14T01:31:06.859Z,4.00
2019-02-14T01:32:06.865Z,4.00
2019-02-14T01:33:06.877Z,4.00
2019-02-14T01:34:06.886Z,4.00
2019-02-14T01:35:06.940Z,4.00
2019-02-14T01:36:06.908Z,4.00
2019-02-14T01:37:06.919Z,4.00
2019-02-14T01:38:06.928Z,4.00
2019-02-14T01:39:06.947Z,4.00
2019-02-14T01:40:06.949Z,4.00
2019-02-14T01:41:06.960Z,4.00
2019-02-14T01:42:06.965Z,4.00
2019-02-14T01:43:06.977Z,4.00
2019-02-14T01:44:06.991Z,4.00
2019-02-14T01:45:07.001Z,4.00
2019-02-14T01:46:07.006Z,4.00
2019-02-14T01:47:07.989Z,4.00
2019-02-14T01:48:07.029Z,4.00
2019-02-14T01:49:07.045Z,4.00
2019-02-14T01:50:07.049Z,4.00
2019-02-14T01:51:07.063Z,4.00
2019-02-14T01:52:07.271Z,4.00
2019-02-14T01:53:07.084Z,4.00
2019-02-14T01:54:07.099Z,4.00
2019-02-14T01:55:07.113Z,4.00
2019-02-14T01:56:07.113Z,4.00
2019-02-14T01:57:07.128Z,4.00
2019-02-14T01:58:07.140Z,4.00
2019-02-14T01:59:07.150Z,4.00
2019-02-14T02:00:07.162Z,4.00
2019-02-14T02:01:07.173Z,4.00
2019-02-14T02:02:07.184Z,4.00
2019-02-14T02:03:07.195Z,4.00
2019-02-14T02:04:07.197Z,4.00
2019-02-14T02:05:07.207Z,4.00
2019-02-14T02:06:07.220Z,4.00
2019-02-14T02:07:07.229Z,4.00
2019-02-14T02:08:08.980Z,4.00
2019-02-14T02:09:07.249Z,4.00
2019-02-14T02:10:07.327Z,4.00
2019-02-14T02:11:07.344Z,4.00
2019-02-14T02:12:07.287Z,4.00
2019-02-14T02:13:07.291Z,4.00
2019-02-14T02:14:07.301Z,4.00
2019-02-14T02:15:07.313Z,4.00
2019-02-14T02:16:07.383Z,4.00
2019-02-14T02:17:07.338Z,4.00
2019-02-14T02:18:07.388Z,4.00
2019-02-14T02:19:07.352Z,4.00
2019-02-14T02:20:07.369Z,4.00
2019-02-14T02:21:07.381Z,4.00
2019-02-14T02:22:07.383Z,4.00
2019-02-14T02:23:07.399Z,4.00
2019-02-14T02:24:07.404Z,4.00
2019-02-14T02:25:07.417Z,4.00
2019-02-14T02:26:07.423Z,4.00
2019-02-14T02:27:07.440Z,4.00
2019-02-14T02:28:07.446Z,4.00
2019-02-14T02:29:07.453Z,4.00
2019-02-14T02:30:07.466Z,4.00
2019-02-14T02:31:07.477Z,4.00
2019-02-14T02:32:07.486Z,4.00
2019-02-14T02:33:07.495Z,4.00
2019-02-14T02:34:07.513Z,4.00
2019-02-14T02:35:07.521Z,4.00
2019-02-14T02:36:07.530Z,4.00
2019-02-14T02:37:07.539Z,4.00
2019-02-14T02:38:07.570Z,4.00
2019-02-14T02:39:07.558Z,4.00
2019-02-14T02:40:07.576Z,4.00
2019-02-14T02:41:07.578Z,4.00
2019-02-14T02:42:07.589Z,4.00
2019-02-14T02:43:07.597Z,4.00
2019-02-14T02:44:09.083Z,4.00
2019-02-14T02:45:07.621Z,4.00
2019-02-14T02:46:07.633Z,4.00
2019-02-14T02:47:07.691Z,4.00
2019-02-14T02:48:07.743Z,4.00
2019-02-14T02:49:07.672Z,4.00
2019-02-14T02:50:07.676Z,4.00
2019-02-14T02:51:07.679Z,4.00
2019-02-14T02:52:07.694Z,4.00
2019-02-14T02:53:07.706Z,4.00
2019-02-14T02:54:07.712Z,4.00
2019-02-14T02:55:07.728Z,4.00
2019-02-14T02:56:07.740Z,4.00
2019-02-14T02:57:07.746Z,4.00
2019-02-14T02:58:07.766Z,4.00
2019-02-14T02:59:07.768Z,4.00
2019-02-14T03:00:07.771Z,4.00
2019-02-14T03:01:07.799Z,4.00
2019-02-14T03:02:07.803Z,4.00
2019-02-14T03:03:07.798Z,0.00
2019-02-14T03:04:07.820Z,4.00
2019-02-14T03:05:07.824Z,4.00
2019-02-14T03:06:10.459Z,4.00
2019-02-14T03:07:07.846Z,4.00
2019-02-14T03:08:07.861Z,4.00
2019-02-14T03:09:07.864Z,0.00
2019-02-14T03:10:07.888Z,0.00
2019-02-14T03:11:07.891Z,0.00
2019-02-14T03:12:07.892Z,4.00
2019-02-14T03:13:07.921Z,0.00
2019-02-14T03:14:07.975Z,0.00
2019-02-14T03:15:07.931Z,0.00
2019-02-14T03:16:07.935Z,0.00
2019-02-14T03:17:07.945Z,0.00
2019-02-14T03:18:07.952Z,0.00
2019-02-14T03:19:07.969Z,0.00
2019-02-14T03:20:07.973Z,0.00
2019-02-14T03:21:07.994Z,0.00
2019-02-14T03:22:07.995Z,0.00
2019-02-14T03:23:08.011Z,0.00
2019-02-14T03:24:08.026Z,0.00
2019-02-14T03:25:08.032Z,0.00
2019-02-14T03:26:08.032Z,0.00
2019-02-14T03:27:08.043Z,0.00
2019-02-14T03:28:08.054Z,0.00
2019-02-14T03:29:08.066Z,0.00
2019-02-14T03:30:08.074Z,0.00
2019-02-14T03:31:08.091Z,0.00
2019-02-14T03:32:08.100Z,0.00
2019-02-14T03:33:08.127Z,0.00
2019-02-14T03:34:08.113Z,0.00
2019-02-14T03:35:08.134Z,0.00
2019-02-14T03:36:08.136Z,0.00
2019-02-14T03:37:08.150Z,0.00
2019-02-14T03:38:08.162Z,0.00
2019-02-14T03:39:08.165Z,0.00
2019-02-14T03:40:08.279Z,0.00
2019-02-14T03:41:08.192Z,0.00
2019-02-14T03:42:08.196Z,0.00
2019-02-14T03:43:08.203Z,0.00
2019-02-14T03:44:08.213Z,0.00
2019-02-14T03:45:08.280Z,0.00
2019-02-14T03:46:08.246Z,0.00
2019-02-14T03:47:08.252Z,0.00
2019-02-14T03:48:08.261Z,0.00
2019-02-14T03:49:08.272Z,0.00
2019-02-14T03:50:08.280Z,0.00
2019-02-14T03:51:08.284Z,0.00
2019-02-14T03:52:08.299Z,0.00
2019-02-14T03:53:08.302Z,0.00
2019-02-14T03:54:08.314Z,0.00
2019-02-14T03:55:08.334Z,0.00
2019-02-14T03:56:08.336Z,0.00
2019-02-14T03:57:08.354Z,0.00
2019-02-14T03:58:08.359Z,0.00
2019-02-14T03:59:08.373Z,0.00
2019-02-14T04:00:08.381Z,0.00
2019-02-14T04:01:08.387Z,0.00
2019-02-14T04:02:08.391Z,0.00
2019-02-14T04:03:08.400Z,0.00
2019-02-14T04:04:08.415Z,0.00
2019-02-14T04:05:08.435Z,0.00
2019-02-14T04:06:08.465Z,0.00
2019-02-14T04:07:08.442Z,0.00
2019-02-14T04:08:08.457Z,0.00
2019-02-14T04:09:08.463Z,0.00
2019-02-14T04:10:08.471Z,0.00
2019-02-14T04:11:08.483Z,0.00
2019-02-14T04:12:08.487Z,0.00
2019-02-14T04:13:08.510Z,0.00
2019-02-14T04:14:08.522Z,0.00
2019-02-14T04:15:08.524Z,0.00
2019-02-14T04:16:08.531Z,0.00
2019-02-14T04:17:08.541Z,0.00
2019-02-14T04:19:08.568Z,0.00
2019-02-14T04:20:08.575Z,0.00
2019-02-14T04:21:08.581Z,0.00
2019-02-14T04:22:08.589Z,0.00
2019-02-14T04:23:08.617Z,0.00
2019-02-14T04:24:08.610Z,0.00
2019-02-14T04:25:08.639Z,0.00
2019-02-14T04:26:08.630Z,0.00
2019-02-14T04:27:08.643Z,0.00
2019-02-14T04:28:08.647Z,0.00
2019-02-14T04:29:08.660Z,0.00
2019-02-14T04:30:08.691Z,0.00
2019-02-14T04:31:08.687Z,0.00
2019-02-14T04:32:08.688Z,0.00
2019-02-14T04:33:08.704Z,0.00
2019-02-14T04:34:08.712Z,0.00
2019-02-14T04:35:08.725Z,0.00
2019-02-14T04:36:08.740Z,0.00
2019-02-14T04:37:08.734Z,0.00
2019-02-14T04:38:08.752Z,0.00
2019-02-14T04:39:08.761Z,0.00
2019-02-14T04:40:08.773Z,0.00
2019-02-14T04:41:08.780Z,0.00
2019-02-14T04:42:08.802Z,0.00
2019-02-14T04:43:08.796Z,0.00
2019-02-14T04:44:08.905Z,0.00
2019-02-14T04:45:08.815Z,4.00
2019-02-14T04:46:08.824Z,4.00
2019-02-14T04:47:08.840Z,4.00
2019-02-14T04:48:08.857Z,4.00
2019-02-14T04:49:08.863Z,4.00
2019-02-14T04:50:08.875Z,4.00
2019-02-14T04:51:08.874Z,4.00
2019-02-14T04:52:08.896Z,4.00
2019-02-14T04:53:08.904Z,4.00
2019-02-14T04:54:08.924Z,4.00
2019-02-14T04:55:08.912Z,4.00
2019-02-14T04:56:08.924Z,4.00
2019-02-14T04:57:08.943Z,4.00
2019-02-14T04:58:08.944Z,4.00
2019-02-14T04:59:08.953Z,4.00
2019-02-14T05:00:08.961Z,4.00
2019-02-14T05:01:08.970Z,4.00
2019-02-14T05:02:08.992Z,4.00
2019-02-14T05:03:08.994Z,4.00
2019-02-14T05:04:08.998Z,4.00
2019-02-14T05:05:09.012Z,4.00
2019-02-14T05:06:09.032Z,4.00
2019-02-14T05:07:09.040Z,4.00
2019-02-14T05:08:09.048Z,4.00
2019-02-14T05:09:09.050Z,4.00
2019-02-14T05:10:09.058Z,4.00
2019-02-14T05:11:09.066Z,4.00
2019-02-14T05:12:09.085Z,4.00
2019-02-14T05:13:09.101Z,4.00
2019-02-14T05:14:09.106Z,4.00
2019-02-14T05:15:09.118Z,4.00
2019-02-14T05:16:09.128Z,4.00
2019-02-14T05:17:09.134Z,4.00
2019-02-14T05:18:09.145Z,4.00
2019-02-14T05:19:09.150Z,4.00
2019-02-14T05:20:09.178Z,4.00
2019-02-14T05:21:09.165Z,4.00
2019-02-14T05:22:09.176Z,4.00
2019-02-14T05:23:09.184Z,4.00
2019-02-14T05:24:09.213Z,4.00
2019-02-14T05:25:09.225Z,4.00
2019-02-14T05:26:09.245Z,4.00
2019-02-14T05:27:09.221Z,4.00
2019-02-14T05:28:09.230Z,4.00
2019-02-14T05:29:09.253Z,4.00
2019-02-14T05:30:09.249Z,4.00
2019-02-14T05:31:09.280Z,4.00
2019-02-14T05:32:09.316Z,4.00
2019-02-14T05:33:09.283Z,4.00
2019-02-14T05:34:09.285Z,4.00
2019-02-14T05:35:09.296Z,4.00
2019-02-14T05:36:09.320Z,4.00
2019-02-14T05:37:09.323Z,4.00
2019-02-14T05:38:09.321Z,4.00
2019-02-14T05:39:09.346Z,4.00
2019-02-14T05:40:09.358Z,4.00
2019-02-14T05:41:09.353Z,4.00
2019-02-14T05:42:09.371Z,4.00
2019-02-14T05:43:09.375Z,4.00
2019-02-14T05:44:09.388Z,4.00
2019-02-14T05:45:09.403Z,4.00
2019-02-14T05:46:09.395Z,4.00
2019-02-14T05:47:09.406Z,4.00
2019-02-14T05:48:09.416Z,4.00
2019-02-14T05:49:09.426Z,4.00
2019-02-14T05:50:09.438Z,4.00
2019-02-14T05:51:09.450Z,4.00
2019-02-14T05:52:09.473Z,4.00
2019-02-14T05:53:09.478Z,4.00
2019-02-14T05:54:09.480Z,4.00
2019-02-14T05:55:09.540Z,4.00
2019-02-14T05:56:09.499Z,4.00
2019-02-14T05:57:09.507Z,4.00
2019-02-14T05:58:09.512Z,4.00
2019-02-14T05:59:09.524Z,4.00
2019-02-14T06:00:09.531Z,4.00
2019-02-14T06:01:09.546Z,4.00
2019-02-14T06:02:09.558Z,4.00
2019-02-14T06:03:09.563Z,4.00
2019-02-14T06:04:09.572Z,4.00
2019-02-14T06:05:09.601Z,4.00
2019-02-14T06:06:09.600Z,4.00
2019-02-14T06:07:09.646Z,4.00
2019-02-14T06:08:09.621Z,4.00
2019-02-14T06:09:09.626Z,4.00
2019-02-14T06:10:09.640Z,4.00
2019-02-14T06:11:09.647Z,4.00
2019-02-14T06:12:09.685Z,4.00
2019-02-14T06:13:09.656Z,0.00
2019-02-14T06:14:09.676Z,4.00
2019-02-14T06:15:09.684Z,4.00
2019-02-14T06:16:09.691Z,4.00
2019-02-14T06:17:09.703Z,4.00
2019-02-14T06:18:09.708Z,4.00
2019-02-14T06:19:09.715Z,4.00
2019-02-14T06:20:09.723Z,4.00
2019-02-14T06:21:09.737Z,4.00
2019-02-14T06:22:09.740Z,8.00
2019-02-14T06:23:09.754Z,4.00
2019-02-14T06:24:09.770Z,4.00
2019-02-14T06:25:09.796Z,8.00
2019-02-14T06:26:09.787Z,8.00
2019-02-14T06:27:09.797Z,8.00
2019-02-14T06:28:09.926Z,8.00
2019-02-14T06:29:09.813Z,12.00
2019-02-14T06:30:09.823Z,8.00
2019-02-14T06:31:09.825Z,8.00
2019-02-14T06:32:09.840Z,12.00
2019-02-14T06:33:09.847Z,12.00
2019-02-14T06:34:09.856Z,16.00
2019-02-14T06:35:09.867Z,16.00
2019-02-14T06:36:09.877Z,20.00
2019-02-14T06:37:10.107Z,24.00
2019-02-14T06:38:09.899Z,28.00
2019-02-14T06:39:09.901Z,32.00
2019-02-14T06:40:09.915Z,36.00
2019-02-14T06:41:09.933Z,44.00
2019-02-14T06:42:09.960Z,44.00
2019-02-14T06:43:09.963Z,52.00
2019-02-14T06:44:09.952Z,56.00
2019-02-14T06:45:09.961Z,60.00
2019-02-14T06:46:09.968Z,68.00
2019-02-14T06:47:10.018Z,72.00
2019-02-14T06:48:09.990Z,80.00
2019-02-14T06:49:10.001Z,84.00
2019-02-14T06:50:10.010Z,92.00
2019-02-14T06:51:10.026Z,100.00
2019-02-14T06:52:10.035Z,108.00
2019-02-14T06:53:10.050Z,120.00
2019-02-14T06:54:10.053Z,124.00
2019-02-14T06:55:10.066Z,140.00
2019-02-14T06:56:10.071Z,152.00
2019-02-14T06:57:10.098Z,160.00
2019-02-14T06:58:10.099Z,172.00
2019-02-14T06:59:10.096Z,184.00
2019-02-14T07:00:10.125Z,196.00
2019-02-14T07:01:10.123Z,204.00
2019-02-14T07:02:10.135Z,220.00
2019-02-14T07:03:10.139Z,228.00
2019-02-14T07:04:10.151Z,240.00
2019-02-14T07:05:10.170Z,252.00
2019-02-14T07:06:10.168Z,268.00
2019-02-14T07:07:17.871Z,276.00
2019-02-14T07:08:10.183Z,292.00
2019-02-14T07:09:10.206Z,308.00
2019-02-14T07:10:10.201Z,320.00
2019-02-14T07:11:10.214Z,328.00
2019-02-14T07:12:10.225Z,344.00
2019-02-14T07:13:10.233Z,356.00
2019-02-14T07:14:10.238Z,372.00
2019-02-14T07:15:10.261Z,384.00
2019-02-14T07:16:10.266Z,400.00
2019-02-14T07:17:10.269Z,416.00
2019-02-14T07:18:10.315Z,424.00
2019-02-14T07:19:10.290Z,440.00
2019-02-14T07:20:10.304Z,456.00
2019-02-14T07:21:10.313Z,464.00
2019-02-14T07:22:10.319Z,480.00
2019-02-14T07:23:10.325Z,504.00
2019-02-14T07:24:10.338Z,520.00
2019-02-14T07:25:10.355Z,544.00
2019-02-14T07:26:10.566Z,572.00
2019-02-14T07:27:10.364Z,584.00
2019-02-14T07:28:10.489Z,588.00
2019-02-14T07:29:10.384Z,604.00
2019-02-14T07:30:10.397Z,612.00
2019-02-14T07:31:10.403Z,620.00
2019-02-14T07:32:10.418Z,628.00
2019-02-14T07:33:10.454Z,636.00
2019-02-14T07:34:10.490Z,648.00
2019-02-14T07:35:10.445Z,668.00
2019-02-14T07:36:10.472Z,684.00
2019-02-14T07:37:10.470Z,712.00
2019-02-14T07:38:10.472Z,732.00
2019-02-14T07:39:11.143Z,756.00
2019-02-14T07:40:10.494Z,784.00
2019-02-14T07:41:10.502Z,812.00
2019-02-14T07:42:10.816Z,836.00
2019-02-14T07:43:10.534Z,864.00
2019-02-14T07:44:10.527Z,892.00
2019-02-14T07:45:10.544Z,916.00
2019-02-14T07:46:10.557Z,936.00
2019-02-14T07:47:10.561Z,964.00
2019-02-14T07:48:10.591Z,984.00
2019-02-14T07:49:10.579Z,1012.00
2019-02-14T07:50:10.585Z,1040.00
2019-02-14T07:51:10.610Z,1064.00
2019-02-14T07:52:10.611Z,1088.00
2019-02-14T07:53:10.615Z,1104.00
2019-02-14T07:54:10.624Z,1140.00
2019-02-14T07:55:10.777Z,1116.00
2019-02-14T07:56:10.671Z,1108.00
2019-02-14T07:57:10.667Z,1112.00
2019-02-14T07:58:10.668Z,1128.00
2019-02-14T07:59:10.681Z,1184.00
2019-02-14T08:00:10.701Z,1288.00
2019-02-14T08:01:10.695Z,1216.00
2019-02-14T08:02:10.709Z,1156.00
2019-02-14T08:03:10.721Z,1168.00
2019-02-14T08:04:10.732Z,1180.00
2019-02-14T08:05:10.734Z,1200.00
2019-02-14T08:06:10.757Z,1220.00
2019-02-14T08:07:10.757Z,1248.00
2019-02-14T08:08:10.787Z,1276.00
2019-02-14T08:09:10.777Z,1300.00
2019-02-14T08:10:10.793Z,1332.00
2019-02-14T08:11:10.793Z,1360.00
2019-02-14T08:12:10.807Z,1388.00
2019-02-14T08:13:10.852Z,1416.00
2019-02-14T08:14:10.832Z,1468.00
2019-02-14T08:15:10.841Z,1808.00
2019-02-14T08:16:10.854Z,1884.00
2019-02-14T08:17:10.860Z,1880.00
2019-02-14T08:18:10.869Z,1884.00
2019-02-14T08:19:10.879Z,1804.00
2019-02-14T08:20:10.889Z,1688.00
2019-02-14T08:21:10.916Z,1712.00
2019-02-14T08:22:10.909Z,1760.00
2019-02-14T08:23:10.915Z,1600.00
2019-02-14T08:24:10.941Z,1460.00
2019-02-14T08:25:10.961Z,1536.00
2019-02-14T08:26:11.284Z,1500.00
2019-02-14T08:27:10.972Z,1444.00
2019-02-14T08:28:10.977Z,1604.00
2019-02-14T08:29:10.986Z,1788.00
2019-02-14T08:30:10.989Z,1772.00
2019-02-14T08:31:11.005Z,1848.00
2019-02-14T08:32:11.004Z,1888.00
2019-02-14T08:33:11.160Z,1716.00
2019-02-14T08:34:11.025Z,1680.00
2019-02-14T08:35:11.045Z,1792.00
2019-02-14T08:36:11.049Z,1800.00
2019-02-14T08:37:11.068Z,1832.00
2019-02-14T08:38:11.062Z,1796.00
2019-02-14T08:39:11.076Z,1732.00
2019-02-14T08:40:11.101Z,1676.00
2019-02-14T08:41:11.105Z,1828.00
2019-02-14T08:42:11.114Z,2200.00
2019-02-14T08:43:11.116Z,1988.00
2019-02-14T08:44:11.131Z,1940.00
2019-02-14T08:45:11.158Z,1716.00
2019-02-14T08:46:11.396Z,1640.00
2019-02-14T08:47:11.160Z,1988.00
2019-02-14T08:48:11.172Z,1892.00
2019-02-14T08:49:11.182Z,2072.00
2019-02-14T08:50:11.195Z,2136.00
2019-02-14T08:51:11.201Z,2164.00
2019-02-14T08:52:11.225Z,2228.00
2019-02-14T08:53:11.228Z,2204.00
2019-02-14T08:54:11.231Z,2200.00
2019-02-14T08:55:11.239Z,2228.00
2019-02-14T08:56:11.266Z,2216.00
2019-02-14T08:57:11.263Z,2332.00
2019-02-14T08:58:11.282Z,2348.00
2019-02-14T08:59:11.289Z,2296.00
2019-02-14T09:00:12.197Z,2304.00
2019-02-14T09:01:11.304Z,2364.00
2019-02-14T09:02:11.319Z,2392.00
2019-02-14T09:03:11.347Z,2468.00
2019-02-14T09:04:11.344Z,2504.00
2019-02-14T09:05:11.359Z,2524.00
2019-02-14T09:06:11.358Z,2492.00
2019-02-14T09:07:11.666Z,2368.00
2019-02-14T09:08:11.393Z,2328.00
2019-02-14T09:09:11.395Z,2332.00
2019-02-14T09:10:11.397Z,2228.00
2019-02-14T09:11:11.416Z,2276.00
2019-02-14T09:12:11.436Z,2296.00
2019-02-14T09:13:17.224Z,2244.00
2019-02-14T09:14:11.485Z,2140.00
2019-02-14T09:15:11.456Z,2004.00
2019-02-14T09:16:11.470Z,1908.00
2019-02-14T09:17:11.474Z,1660.00
2019-02-14T09:18:11.496Z,1492.00
2019-02-14T09:19:11.500Z,1436.00
2019-02-14T09:20:11.511Z,1648.00
2019-02-14T09:21:11.556Z,1652.00
2019-02-14T09:22:11.526Z,1360.00
2019-02-14T09:23:11.544Z,1400.00
2019-02-14T09:24:11.552Z,1368.00
2019-02-14T09:25:11.576Z,1460.00
2019-02-14T09:26:11.589Z,1428.00
2019-02-14T09:27:11.587Z,1564.00
2019-02-14T09:28:11.596Z,1760.00
2019-02-14T09:29:13.892Z,1696.00
2019-02-14T09:30:11.623Z,1896.00
2019-02-14T09:31:11.760Z,1936.00
2019-02-14T09:32:11.639Z,1964.00
2019-02-14T09:33:11.659Z,2104.00
2019-02-14T09:34:11.658Z,2132.00
2019-02-14T09:35:11.683Z,2092.00
2019-02-14T09:36:11.688Z,2140.00
2019-02-14T09:37:11.694Z,2232.00
2019-02-14T09:38:12.466Z,2328.00
2019-02-14T09:39:11.713Z,2332.00
2019-02-14T09:40:11.723Z,2364.00
2019-02-14T09:41:11.738Z,2416.00
2019-02-14T09:42:11.752Z,2276.00
2019-02-14T09:43:11.772Z,2532.00
2019-02-14T09:44:11.776Z,2532.00
2019-02-14T09:45:12.000Z,2580.00
2019-02-14T09:46:11.853Z,2676.00
2019-02-14T09:47:11.835Z,2568.00
2019-02-14T09:48:11.813Z,2532.00
2019-02-14T09:49:11.851Z,2024.00
2019-02-14T09:50:11.855Z,2200.00
2019-02-14T09:51:12.322Z,2248.00
2019-02-14T09:52:11.902Z,2044.00
2019-02-14T09:53:12.463Z,1848.00
2019-02-14T09:54:11.893Z,1840.00
2019-02-14T09:55:11.895Z,2180.00
2019-02-14T09:56:11.914Z,2204.00
2019-02-14T09:57:11.917Z,2328.00
2019-02-14T09:58:11.945Z,2396.00
2019-02-14T09:59:11.937Z,2512.00
2019-02-14T10:00:11.953Z,2280.00
2019-02-14T10:01:11.959Z,2168.00
2019-02-14T10:02:12.116Z,2188.00
2019-02-14T10:03:12.002Z,2128.00
2019-02-14T10:04:12.010Z,2084.00
2019-02-14T10:05:12.019Z,2072.00
2019-02-14T10:06:12.010Z,2028.00
2019-02-14T10:07:12.041Z,1960.00
2019-02-14T10:08:13.081Z,1924.00
2019-02-14T10:09:12.048Z,1916.00
2019-02-14T10:10:12.073Z,1904.00
2019-02-14T10:11:12.072Z,1900.00
2019-02-14T10:12:12.085Z,1896.00
2019-02-14T10:13:12.107Z,1908.00
2019-02-14T10:14:12.105Z,1916.00
2019-02-14T10:15:12.126Z,1912.00
2019-02-14T10:16:12.125Z,1908.00
2019-02-14T10:17:12.138Z,1916.00
2019-02-14T10:18:12.610Z,1904.00
2019-02-14T10:19:12.173Z,1892.00
2019-02-14T10:20:12.173Z,1864.00
2019-02-14T10:21:12.183Z,1848.00
2019-02-14T10:22:12.205Z,1836.00
2019-02-14T10:23:12.202Z,1824.00
2019-02-14T10:24:12.216Z,1840.00
2019-02-14T10:25:12.254Z,1852.00
2019-02-14T10:26:12.371Z,1912.00
2019-02-14T10:27:13.149Z,2000.00
2019-02-14T10:28:12.268Z,2208.00
2019-02-14T10:29:12.280Z,2640.00
2019-02-14T10:30:12.304Z,2856.00
2019-02-14T10:31:12.295Z,2940.00
2019-02-14T10:32:12.326Z,3008.00
2019-02-14T10:33:12.319Z,2896.00
2019-02-14T10:34:12.336Z,2672.00
2019-02-14T10:35:12.350Z,1784.00
2019-02-14T10:36:12.357Z,2472.00
2019-02-14T10:37:12.368Z,2016.00
2019-02-14T10:38:21.721Z,1616.00
2019-02-14T10:39:12.400Z,1552.00
2019-02-14T10:40:12.412Z,1776.00
2019-02-14T10:41:12.418Z,2272.00
2019-02-14T10:42:12.437Z,2168.00
2019-02-14T10:43:12.440Z,2264.00
2019-02-14T10:44:12.468Z,2432.00
2019-02-14T10:45:12.471Z,2444.00
2019-02-14T10:46:12.484Z,2520.00
2019-02-14T10:47:12.485Z,2500.00
2019-02-14T10:48:12.495Z,2544.00
2019-02-14T10:49:12.531Z,2568.00
2019-02-14T10:50:12.535Z,2536.00
2019-02-14T10:51:12.531Z,2536.00
2019-02-14T10:52:12.550Z,2564.00
2019-02-14T10:53:12.630Z,2500.00
2019-02-14T10:54:12.587Z,2608.00
2019-02-14T10:55:12.582Z,2628.00
2019-02-14T10:56:12.604Z,2608.00
2019-02-14T10:57:12.608Z,2584.00
2019-02-14T10:58:12.615Z,2524.00
2019-02-14T10:59:12.629Z,2356.00
2019-02-14T11:00:12.652Z,2232.00
2019-02-14T11:01:12.662Z,2212.00
2019-02-14T11:03:12.704Z,2512.00
2019-02-14T11:04:12.695Z,2356.00
2019-02-14T11:05:12.706Z,2508.00
2019-02-14T11:06:12.713Z,2488.00
2019-02-14T11:07:13.647Z,2444.00
2019-02-14T11:08:12.738Z,2444.00
2019-02-14T11:09:12.751Z,2232.00
2019-02-14T11:10:12.781Z,2172.00
2019-02-14T11:11:12.783Z,2020.00
2019-02-14T11:12:12.786Z,2024.00
2019-02-14T11:13:12.789Z,1856.00
2019-02-14T11:14:12.798Z,1656.00
2019-02-14T11:15:12.813Z,1696.00
2019-02-14T11:16:12.844Z,1644.00
2019-02-14T11:17:12.847Z,1980.00
2019-02-14T11:18:12.852Z,2128.00
2019-02-14T11:19:12.866Z,2212.00
2019-02-14T11:20:13.278Z,2400.00
2019-02-14T11:21:12.910Z,2140.00
2019-02-14T11:22:12.900Z,2216.00
2019-02-14T11:23:12.917Z,2156.00
2019-02-14T11:24:12.930Z,2504.00
2019-02-14T11:25:12.961Z,2904.00
2019-02-14T11:26:12.945Z,2936.00
2019-02-14T11:27:12.972Z,2560.00
2019-02-14T11:28:12.970Z,2516.00
2019-02-14T11:29:12.992Z,2496.00
2019-02-14T11:30:12.993Z,2696.00
2019-02-14T11:31:13.018Z,3008.00
2019-02-14T11:32:13.030Z,3224.00
2019-02-14T11:33:13.035Z,3208.00
2019-02-14T11:34:13.058Z,3096.00
2019-02-14T11:35:13.068Z,3004.00
2019-02-14T11:36:13.067Z,2916.00
2019-02-14T11:37:13.087Z,2932.00
2019-02-14T11:38:13.134Z,2620.00
2019-02-14T11:39:13.125Z,2492.00
2019-02-14T11:40:13.195Z,2536.00
2019-02-14T11:41:13.139Z,2396.00
2019-02-14T11:42:13.144Z,2092.00
2019-02-14T11:43:13.160Z,2080.00
2019-02-14T11:44:13.892Z,2224.00
2019-02-14T11:45:13.721Z,1784.00
2019-02-14T11:46:13.205Z,1824.00
2019-02-14T11:47:13.207Z,2256.00
2019-02-14T11:48:13.218Z,1944.00
2019-02-14T11:49:13.255Z,2072.00
2019-02-14T11:50:13.254Z,2220.00
2019-02-14T11:51:13.259Z,2016.00
2019-02-14T11:52:13.266Z,2184.00
2019-02-14T11:53:14.160Z,2032.00
2019-02-14T11:54:13.289Z,2464.00
2019-02-14T11:55:13.377Z,2404.00
2019-02-14T11:56:13.831Z,2276.00
2019-02-14T11:57:13.421Z,2376.00
2019-02-14T11:58:13.373Z,2504.00
2019-02-14T11:59:13.397Z,2704.00
2019-02-14T12:00:13.381Z,2784.00
2019-02-14T12:01:13.377Z,2840.00
2019-02-14T12:02:13.489Z,2836.00
2019-02-14T12:03:13.412Z,2908.00
2019-02-14T12:04:13.419Z,2840.00
2019-02-14T12:05:13.435Z,2920.00
2019-02-14T12:06:17.502Z,2992.00
2019-02-14T12:07:13.455Z,3012.00
2019-02-14T12:08:13.466Z,2960.00
2019-02-14T12:09:13.504Z,2876.00
2019-02-14T12:10:14.007Z,2912.00
2019-02-14T12:11:13.505Z,2740.00
2019-02-14T12:12:13.517Z,2584.00
2019-02-14T12:13:13.532Z,2568.00
2019-02-14T12:14:13.545Z,2776.00
2019-02-14T12:15:14.120Z,2724.00
2019-02-14T12:16:13.568Z,2708.00
2019-02-14T12:17:13.779Z,2756.00
2019-02-14T12:18:13.592Z,2772.00
2019-02-14T12:19:13.604Z,2776.00
2019-02-14T12:20:13.629Z,2604.00
2019-02-14T12:21:13.639Z,2444.00
2019-02-14T12:22:13.663Z,2508.00
2019-02-14T12:23:13.657Z,2600.00
2019-02-14T12:24:13.673Z,2556.00
2019-02-14T12:25:13.793Z,2456.00
2019-02-14T12:26:13.725Z,2448.00
2019-02-14T12:27:13.714Z,2472.00
2019-02-14T12:28:13.739Z,2428.00
2019-02-14T12:29:13.744Z,2420.00
2019-02-14T12:30:13.760Z,2388.00
2019-02-14T12:31:13.783Z,2352.00
2019-02-14T12:32:13.783Z,2324.00
2019-02-14T12:33:13.803Z,2296.00
2019-02-14T12:34:13.793Z,2264.00
2019-02-14T12:35:13.822Z,2232.00
2019-02-14T12:36:13.832Z,2208.00
2019-02-14T12:37:13.833Z,2204.00
2019-02-14T12:38:13.853Z,2200.00
2019-02-14T12:39:13.897Z,2192.00
2019-02-14T12:40:14.178Z,2128.00
2019-02-14T12:41:13.894Z,2196.00
2019-02-14T12:42:13.896Z,2212.00
2019-02-14T12:43:13.921Z,2216.00
2019-02-14T12:44:13.949Z,2208.00
2019-02-14T12:45:20.364Z,2192.00
2019-02-14T12:46:13.980Z,2220.00